createdAt,value
2018-07-14T00:00:58.956Z,1.87
2018-07-14T00:06:02.368Z,1.87
2018-07-14T00:11:05.775Z,1.87
2018-07-14T00:16:09.141Z,1.90
2018-07-14T00:21:12.545Z,1.83
2018-07-14T00:26:19.592Z,1.80
2018-07-14T00:31:22.984Z,2.07
2018-07-14T00:36:26.317Z,1.87
2018-07-14T00:41:29.692Z,2.23
2018-07-14T00:46:33.577Z,1.80
2018-07-14T00:51:36.996Z,1.73
2018-07-14T00:56:40.388Z,1.80
2018-07-14T01:01:43.792Z,1.97
2018-07-14T01:06:47.261Z,2.10
2018-07-14T01:11:50.643Z,2.50
2018-07-14T01:16:53.997Z,1.87
2018-07-14T01:21:57.377Z,2.23
2018-07-14T01:27:00.777Z,2.07
2018-07-14T01:32:04.169Z,2.10
2018-07-14T01:37:07.548Z,2.03
2018-07-14T01:42:10.922Z,2.00
2018-07-14T01:47:14.313Z,2.07
2018-07-14T01:52:17.760Z,2.10
2018-07-14T01:57:21.193Z,2.50
2018-07-14T02:02:24.554Z,2.20
2018-07-14T02:07:31.606Z,2.13
2018-07-14T02:12:34.996Z,1.97
2018-07-14T02:17:38.353Z,1.97
2018-07-14T02:22:41.708Z,2.10
2018-07-14T02:27:45.088Z,2.30
2018-07-14T02:32:48.439Z,2.27
2018-07-14T02:37:51.812Z,2.30
2018-07-14T02:42:55.173Z,2.13
2018-07-14T02:47:58.559Z,2.60
2018-07-14T02:53:01.944Z,2.47
2018-07-14T02:58:05.321Z,2.30
2018-07-14T03:03:08.703Z,2.00
2018-07-14T03:08:12.071Z,2.10
2018-07-14T03:13:15.472Z,2.60
2018-07-14T03:18:18.873Z,2.20
2018-07-14T03:23:22.252Z,2.50
2018-07-14T03:28:25.641Z,2.00
2018-07-14T03:33:29.038Z,2.40
2018-07-14T03:38:32.424Z,2.00
2018-07-14T03:43:35.788Z,2.47
2018-07-14T03:48:39.184Z,2.57
2018-07-14T03:53:42.542Z,2.30
2018-07-14T03:58:45.924Z,2.63
2018-07-14T04:03:49.317Z,2.40
2018-07-14T04:08:52.788Z,2.60
2018-07-14T04:13:56.128Z,2.67
2018-07-14T04:18:59.500Z,2.73
2018-07-14T04:24:02.863Z,2.57
2018-07-14T04:29:06.358Z,2.60
2018-07-14T04:34:09.723Z,2.47
2018-07-14T04:39:12.835Z,2.83
2018-07-14T04:44:16.208Z,2.80
2018-07-14T04:49:19.616Z,3.10
2018-07-14T04:54:22.993Z,2.53
2018-07-14T04:59:26.393Z,2.80
2018-07-14T05:04:29.792Z,3.00
2018-07-14T05:09:33.156Z,3.00
2018-07-14T05:14:36.599Z,2.73
2018-07-14T05:19:40.790Z,2.60
2018-07-14T05:24:44.316Z,3.30
2018-07-14T05:29:47.704Z,3.00
2018-07-14T05:34:51.090Z,3.27
2018-07-14T05:39:54.441Z,3.23
2018-07-14T05:44:57.989Z,3.20
2018-07-14T05:50:01.364Z,3.23
2018-07-14T05:55:04.749Z,3.10
2018-07-14T06:00:08.672Z,2.93
2018-07-14T06:05:12.046Z,3.40
2018-07-14T06:10:16.026Z,3.10
2018-07-14T06:15:19.387Z,3.47
2018-07-14T06:20:22.748Z,3.53
2018-07-14T06:25:26.116Z,3.53
2018-07-14T06:30:29.504Z,3.37
2018-07-14T06:35:32.608Z,3.53
2018-07-14T06:40:36.044Z,4.00
2018-07-14T06:45:39.431Z,3.80
2018-07-14T06:50:42.884Z,4.00
2018-07-14T06:55:46.268Z,3.67
2018-07-14T07:00:49.410Z,3.83
2018-07-14T07:05:52.868Z,3.40
2018-07-14T07:10:56.237Z,3.57
2018-07-14T07:15:59.654Z,3.47
2018-07-14T07:21:03.093Z,3.07
2018-07-14T07:26:06.517Z,3.67
2018-07-14T07:31:09.900Z,3.50
2018-07-14T07:36:13.305Z,3.57
2018-07-14T07:41:16.743Z,3.00
2018-07-14T07:46:20.117Z,3.67
2018-07-14T07:51:23.503Z,3.27
2018-07-14T07:56:26.902Z,3.40
2018-07-14T08:01:30.302Z,3.60
2018-07-14T08:06:34.710Z,3.17
2018-07-14T08:11:38.517Z,2.83
2018-07-14T08:16:46.091Z,3.00
2018-07-14T08:21:49.502Z,2.57
2018-07-14T08:26:52.900Z,2.70
2018-07-14T08:31:56.297Z,2.40
2018-07-14T08:36:59.718Z,2.43
2018-07-14T08:42:03.149Z,2.17
2018-07-14T08:47:06.962Z,2.40
2018-07-14T08:52:10.929Z,2.27
2018-07-14T08:57:14.315Z,2.00
2018-07-14T09:02:17.768Z,2.00
2018-07-14T09:07:21.153Z,2.27
2018-07-14T09:12:24.556Z,2.20
2018-07-14T09:17:27.947Z,2.13
2018-07-14T09:22:31.479Z,2.70
2018-07-14T09:27:34.848Z,2.23
2018-07-14T09:32:38.281Z,2.50
2018-07-14T09:37:41.878Z,3.30
2018-07-14T09:42:46.073Z,2.90
2018-07-14T09:47:49.535Z,2.60
2018-07-14T09:52:52.955Z,2.50
2018-07-14T09:57:56.780Z,4.65
2018-07-14T10:03:00.242Z,2.52
2018-07-14T10:08:03.802Z,2.60
2018-07-14T10:13:07.811Z,2.47
2018-07-14T10:18:11.315Z,2.15
2018-07-14T10:23:14.931Z,2.50
2018-07-14T10:28:18.496Z,2.75
2018-07-14T10:33:21.977Z,2.60
2018-07-14T10:38:25.504Z,2.70
2018-07-14T10:43:30.094Z,3.12
2018-07-14T10:48:33.696Z,2.60
2018-07-14T10:53:37.369Z,3.00
2018-07-14T10:58:41.404Z,2.67
2018-07-14T11:03:45.108Z,2.72
2018-07-14T11:08:48.766Z,2.45
2018-07-14T11:13:52.391Z,3.77
2018-07-14T11:18:55.695Z,2.05
2018-07-14T11:23:59.335Z,2.52
2018-07-14T11:29:03.565Z,2.47
2018-07-14T11:34:06.887Z,2.67
2018-07-14T11:39:13.766Z,2.45
2018-07-14T11:44:17.456Z,2.42
2018-07-14T11:49:21.180Z,2.35
2018-07-14T11:54:24.822Z,2.20
2018-07-14T11:59:28.577Z,2.08
2018-07-14T12:04:32.305Z,2.20
2018-07-14T12:09:35.977Z,2.25
2018-07-14T12:14:40.482Z,2.17
2018-07-14T12:19:44.174Z,2.45
2018-07-14T12:24:47.769Z,2.22
2018-07-14T12:29:53.796Z,2.47
2018-07-14T12:34:58.147Z,2.27
2018-07-14T12:40:02.837Z,2.25
2018-07-14T12:45:08.535Z,2.62
2018-07-14T12:50:15.216Z,2.65
2018-07-14T12:55:21.761Z,2.15
2018-07-14T13:00:27.840Z,2.60
2018-07-14T13:05:33.883Z,2.90
2018-07-14T13:10:41.025Z,2.25
2018-07-14T13:15:44.691Z,2.52
2018-07-14T13:20:48.549Z,2.58
2018-07-14T13:25:52.448Z,2.47
2018-07-14T13:30:56.093Z,2.67
2018-07-14T13:35:59.806Z,2.30
2018-07-14T13:41:03.651Z,2.27
2018-07-14T13:46:07.391Z,2.22
2018-07-14T13:51:10.751Z,2.33
2018-07-14T13:56:14.785Z,2.55
2018-07-14T14:01:19.396Z,2.60
2018-07-14T14:06:23.239Z,2.87
2018-07-14T14:11:26.661Z,2.80
2018-07-14T14:16:30.424Z,2.50
2018-07-14T14:21:34.253Z,2.70
2018-07-14T14:26:40.065Z,2.62
2018-07-14T14:31:44.843Z,2.45
2018-07-14T14:36:49.733Z,3.17
2018-07-14T14:41:53.060Z,2.42
2018-07-14T14:47:29.088Z,2.15
2018-07-14T14:52:36.341Z,2.40
2018-07-14T14:57:55.551Z,2.55
2018-07-14T15:03:09.204Z,2.60
2018-07-14T15:08:18.060Z,2.47
2018-07-14T15:13:23.083Z,3.17
2018-07-14T15:18:28.381Z,2.65
2018-07-14T15:23:36.946Z,2.80
2018-07-14T15:28:43.304Z,2.77
2018-07-14T15:33:48.391Z,2.58
2018-07-14T15:39:00.815Z,2.65
2018-07-14T15:44:14.390Z,2.80
2018-07-14T15:49:33.069Z,2.70
2018-07-14T15:54:41.830Z,2.60
2018-07-14T15:59:50.701Z,2.58
2018-07-14T16:04:54.572Z,2.58
2018-07-14T16:09:58.238Z,2.75
2018-07-14T16:15:01.906Z,2.58
2018-07-14T16:20:06.492Z,2.62
2018-07-14T16:25:12.146Z,2.40
2018-07-14T16:30:15.813Z,2.70
2018-07-14T16:35:35.011Z,2.50
2018-07-14T16:40:40.799Z,2.33
2018-07-14T16:45:44.632Z,2.30
2018-07-14T16:50:51.559Z,2.05
2018-07-14T16:56:00.413Z,2.10
2018-07-14T17:01:04.301Z,2.30
2018-07-14T17:06:09.029Z,2.27
2018-07-14T17:11:14.971Z,2.10
2018-07-14T17:16:19.822Z,2.47
2018-07-14T17:21:23.648Z,2.12
2018-07-14T17:26:27.272Z,2.90
2018-07-14T17:31:31.245Z,2.25
2018-07-14T17:36:34.981Z,2.20
2018-07-14T17:41:38.738Z,2.35
2018-07-14T17:46:42.365Z,2.42
2018-07-14T17:51:46.074Z,2.55
2018-07-14T17:56:49.782Z,2.22
2018-07-14T18:01:54.009Z,2.52
2018-07-14T18:06:58.580Z,2.15
2018-07-14T18:12:02.057Z,2.10
2018-07-14T18:17:05.705Z,2.40
2018-07-14T18:22:09.441Z,2.45
2018-07-14T18:27:13.074Z,2.12
2018-07-14T18:32:17.746Z,2.33
2018-07-14T18:37:21.491Z,2.30
2018-07-14T18:42:25.058Z,2.40
2018-07-14T18:47:28.715Z,2.50
2018-07-14T18:52:32.443Z,2.50
2018-07-14T18:57:35.918Z,2.77
2018-07-14T19:02:39.532Z,2.37
2018-07-14T19:07:43.085Z,2.43
2018-07-14T19:12:47.660Z,2.87
2018-07-14T19:17:51.229Z,2.43
2018-07-14T19:22:54.856Z,2.80
2018-07-14T19:27:58.385Z,2.77
2018-07-14T19:33:01.955Z,3.50
2018-07-14T19:38:05.579Z,3.00
2018-07-14T19:43:09.065Z,3.10
2018-07-14T19:48:12.626Z,2.87
2018-07-14T19:53:16.290Z,2.67
2018-07-14T19:58:19.842Z,2.83
2018-07-14T20:03:23.422Z,2.83
2018-07-14T20:08:26.981Z,2.87
2018-07-14T20:13:30.478Z,2.77
2018-07-14T20:18:33.990Z,3.00
2018-07-14T20:23:38.429Z,2.70
2018-07-14T20:28:42.449Z,3.07
2018-07-14T20:33:46.927Z,2.53
2018-07-14T20:38:50.896Z,3.23
2018-07-14T20:43:54.993Z,3.00
2018-07-14T20:48:58.835Z,3.10
2018-07-14T20:54:02.210Z,3.03
2018-07-14T20:59:05.699Z,2.70
2018-07-14T21:04:09.345Z,3.10
2018-07-14T21:09:12.747Z,3.30
2018-07-14T21:14:16.551Z,3.20
2018-07-14T21:19:19.966Z,2.60
2018-07-14T21:24:24.045Z,2.97
2018-07-14T21:29:27.504Z,3.10
2018-07-14T21:34:30.997Z,2.77
2018-07-14T21:39:34.421Z,2.67
2018-07-14T21:44:37.939Z,3.30
2018-07-14T21:49:41.623Z,2.80
2018-07-14T21:54:45.069Z,2.70
2018-07-14T21:59:48.467Z,2.67
2018-07-14T22:04:52.254Z,3.10
2018-07-14T22:09:55.760Z,3.60
2018-07-14T22:14:59.386Z,3.87
2018-07-14T22:20:02.825Z,3.53
2018-07-14T22:25:06.266Z,3.20
2018-07-14T22:30:10.719Z,2.90
2018-07-14T22:35:14.254Z,3.00
2018-07-14T22:40:17.711Z,2.80
2018-07-14T22:45:21.142Z,2.80
2018-07-14T22:50:24.609Z,3.10
2018-07-14T22:55:28.071Z,2.77
2018-07-14T23:00:31.534Z,2.93
2018-07-14T23:05:34.925Z,3.33
2018-07-14T23:10:38.027Z,3.30
2018-07-14T23:15:42.449Z,2.97
2018-07-14T23:20:47.087Z,3.37
2018-07-14T23:25:50.517Z,3.30
2018-07-14T23:30:54.014Z,3.63
2018-07-14T23:35:57.437Z,2.97
2018-07-14T23:41:00.890Z,3.23
2018-07-14T23:46:04.568Z,3.30
2018-07-14T23:51:07.866Z,3.20
2018-07-14T23:56:11.392Z,3.03
